Terminal Aerodrome Forecast
Issued by NWS

Home | Current Version | Previous Version | Graphics & Text | Print | Product List | Glossary On
Versions: 1 2 3 4 5 6 7 8 9 10 11 12 13 14 15 16
621
FTUS43 KTOP 112320
TAFMHK
TAF
KMHK 112320Z 1200/1224 22004KT P6SM SCT050 SCT120
     FM120700 33008KT P6SM SCT020 SCT040
     FM121400 01011KT P6SM BKN015
     FM121900 01010KT P6SM SCT035=

USA.gov is the U.S. government's official web portal to all federal, state and local government web resources and services.